Main page
METAR-TAF:

METAR-TAF

Airports :

Larissa, Greece

latitude: 39-38N, longitude: 022-25E, elevation: 73 m

METAR: missing

Time: 13:29 (11:29 UTC)

Forecast

The report was made 3 hours and 29 minutes ago, at 08:00 UTC
Forecast valid from 21 at 09 UTC to 21 at 18 UTC
Wind 3 kt from variable directions
Visibility: 0400 m
Broken clouds at a height of 500 ft
Scattered clouds at a height of 2000 ft
fog
Becoming
from 21 at 09 UTC to 21 at 11 UTC
Visibility: 5000 m
Few clouds at a height of 800 ft
Scattered clouds at a height of 2000 ft
mist
Becoming
from 21 at 13 UTC to 21 at 15 UTC
Wind 8 kt from the West/Southwest
Visibility 10 km or more
Few clouds at a height of 2500 ft

TAF: LGLR 210800Z 2109/2118 VRB03KT 0400 FG BKN005 SCT020 BECMG 2109/2111 5000 BR FEW008 SCT020 BECMG 2113/2115 25008KT 9999 FEW025

Weather observations and forecasts of more than 4000 airports (METAR and TAF reports).

The available stations are represented by yellow and red dots on the map.

Hover mouse over dot to see the name of the station.

Then click to see weather observations and forecasts.

To change the map : click on the green buttons with a black cross to zoom in, on the green button with a dash to zoom out, or on the green arrows for adjacent maps.


METAR-TAF: